Shovel Lake, Minnesota
Current Conditions -  °F | °C
As of 8:35 AM on Monday 26 Jan 2015 (Local Time) from KGPZ Reporting Station
Overcast Overcast  
Wind Chill: 21°   Ceiling: 1200
Heat Index: 27°   Visibility: 4mi
Dew Point: 25°   Wind: 5mph
Humidity: 93%   Direction: 220°SW
Pressure: 29.58"   Gusts: NA
Location:  46.9367°N, 93.6827°W
Report Text: KGPZ 261435Z AUTO 22004KT 4SM OVC012 M03/M04 A2958 RMK AO1
Loading
Personal Weather Stations






























Interactive Weather Map New forecast layout! Learn more

10-Day Weather Forecast

Advertisements
Track Severe Weather on mobile